createdAt,value
2023-02-16T00:00:08.854Z,98095.53
2023-02-16T00:12:33.028Z,98083.41
2023-02-16T00:15:36.825Z,98555.63
2023-02-16T00:18:20.541Z,98250.56
2023-02-16T00:27:28.568Z,98500.25
2023-02-16T00:30:49.136Z,98030.38
2023-02-16T00:37:10.518Z,98010.84
2023-02-16T00:40:13.738Z,98295.56
2023-02-16T00:43:38.276Z,98266.41
2023-02-16T00:47:13.043Z,98196.13
2023-02-16T00:54:17.888Z,98212.88
2023-02-16T00:56:48.267Z,98225.72
2023-02-16T00:59:41.585Z,98269.22
2023-02-16T01:05:07.662Z,98288.63
2023-02-16T01:11:24.269Z,98134.69
2023-02-16T01:14:26.936Z,98279.31
2023-02-16T01:16:57.015Z,98275.47
2023-02-16T01:19:56.679Z,98502.00
2023-02-16T01:25:37.339Z,98093.50
2023-02-16T01:28:43.774Z,98271.38
2023-02-16T01:32:14.358Z,98005.88
2023-02-16T01:34:39.473Z,98548.13
2023-02-16T01:37:51.715Z,98176.34
2023-02-16T01:42:56.978Z,97752.41
2023-02-16T01:45:32.850Z,98538.81
2023-02-16T01:48:09.824Z,98343.44
2023-02-16T01:50:50.209Z,98512.34
2023-02-16T01:53:32.219Z,98532.91
2023-02-16T01:56:07.013Z,98473.41
2023-02-16T01:58:54.953Z,98366.06
2023-02-16T02:01:38.502Z,98530.34
2023-02-16T02:04:32.793Z,98103.38
2023-02-16T02:07:01.255Z,98520.22
2023-02-16T02:09:38.830Z,98528.75
2023-02-16T02:12:30.079Z,98518.56
2023-02-16T02:14:56.644Z,98516.00
2023-02-16T02:17:23.350Z,98517.66
2023-02-16T02:20:08.582Z,98518.56
2023-02-16T02:23:03.508Z,98510.81
2023-02-16T02:25:44.779Z,98516.75
2023-02-16T02:28:17.363Z,98504.84
2023-02-16T02:31:04.792Z,98499.72
2023-02-16T02:33:57.736Z,98503.97
2023-02-16T02:36:40.720Z,98441.75
2023-02-16T02:39:38.315Z,98498.81
2023-02-16T02:42:10.810Z,98494.56
2023-02-16T02:44:54.973Z,98383.09
2023-02-16T02:47:23.943Z,98265.63
2023-02-16T02:50:05.938Z,98275.16
2023-02-16T02:52:32.541Z,98502.22
2023-02-16T02:55:17.590Z,98362.97
2023-02-16T02:58:04.544Z,98098.72
2023-02-16T03:00:47.447Z,98497.91
2023-02-16T03:03:34.146Z,98519.22
2023-02-16T03:06:03.717Z,98230.63
2023-02-16T03:08:32.139Z,98238.38
2023-02-16T03:11:30.876Z,98396.91
2023-02-16T03:14:17.644Z,98514.03
2023-02-16T03:17:21.285Z,98171.34
2023-02-16T03:20:06.946Z,98504.69
2023-02-16T03:22:52.161Z,98211.22
2023-02-16T03:25:48.468Z,98019.72
2023-02-16T03:28:33.642Z,98503.81
2023-02-16T03:31:04.614Z,98500.56
2023-02-16T03:33:31.459Z,98165.75
2023-02-16T03:35:58.167Z,98116.03
2023-02-16T03:38:33.596Z,98494.41
2023-02-16T03:41:00.266Z,98204.97
2023-02-16T03:43:31.739Z,98178.06
2023-02-16T03:45:58.396Z,98392.47
2023-02-16T03:48:27.531Z,98506.38
2023-02-16T03:50:54.320Z,98499.50
2023-02-16T03:53:20.995Z,98497.84
2023-02-16T03:55:50.253Z,98497.84
2023-02-16T03:58:20.399Z,98501.28
2023-02-16T04:00:47.023Z,97532.19
2023-02-16T04:03:13.992Z,97361.50
2023-02-16T04:05:40.654Z,98499.34
2023-02-16T04:08:11.228Z,98306.91
2023-02-16T04:10:42.974Z,98290.06
2023-02-16T04:13:12.699Z,98512.25
2023-02-16T04:15:39.485Z,97850.38
2023-02-16T04:18:06.262Z,97740.59
2023-02-16T04:20:33.631Z,98424.03
2023-02-16T04:23:02.294Z,98501.19
2023-02-16T04:25:29.076Z,98513.06
2023-02-16T04:27:55.745Z,98503.75
2023-02-16T04:30:28.259Z,98319.50
2023-02-16T04:32:55.132Z,98507.16
2023-02-16T04:35:21.922Z,98508.84
2023-02-16T04:37:48.616Z,98508.03
2023-02-16T04:40:19.413Z,98513.16
2023-02-16T04:42:46.060Z,98514.81
2023-02-16T04:45:12.798Z,98509.63
2023-02-16T04:47:39.289Z,98513.16
2023-02-16T04:50:06.596Z,98462.38
2023-02-16T04:52:34.284Z,98505.50
2023-02-16T04:55:00.894Z,98506.38
2023-02-16T04:57:27.523Z,98449.63
2023-02-16T04:59:53.998Z,98279.56
2023-02-16T05:02:20.570Z,98414.22
2023-02-16T05:04:47.147Z,98508.13
2023-02-16T05:07:13.667Z,98357.53
2023-02-16T05:09:40.213Z,98507.31
2023-02-16T05:12:25.101Z,98272.47
2023-02-16T05:14:51.749Z,98350.16
2023-02-16T05:17:22.364Z,98509.78
2023-02-16T05:19:50.585Z,98445.53
2023-02-16T05:22:17.258Z,98345.59
2023-02-16T05:24:43.891Z,98357.72
2023-02-16T05:27:17.770Z,98489.66
2023-02-16T05:29:44.250Z,98540.41
2023-02-16T05:32:10.784Z,98437.94
2023-02-16T05:34:37.434Z,98540.31
2023-02-16T05:37:03.974Z,98447.75
2023-02-16T05:39:30.617Z,98460.50
2023-02-16T05:41:57.139Z,98330.47
2023-02-16T05:44:23.620Z,98542.63
2023-02-16T05:46:50.188Z,98537.44
2023-02-16T05:49:17.194Z,98431.31
2023-02-16T05:51:43.932Z,98447.81
2023-02-16T05:54:17.513Z,98331.97
2023-02-16T05:56:48.609Z,98353.72
2023-02-16T05:59:15.939Z,98490.78
2023-02-16T06:01:42.796Z,98453.19
2023-02-16T06:04:10.198Z,98395.28
2023-02-16T06:06:37.666Z,98552.03
2023-02-16T06:09:05.650Z,98498.59
2023-02-16T06:11:38.138Z,98458.91
2023-02-16T06:14:10.087Z,98557.94
2023-02-16T06:16:37.692Z,98459.53
2023-02-16T06:19:04.380Z,98399.25
2023-02-16T06:21:30.899Z,98563.94
2023-02-16T06:23:57.403Z,98434.13
2023-02-16T06:26:24.200Z,98519.38
2023-02-16T06:28:50.767Z,98293.19
2023-02-16T06:31:17.435Z,98415.75
2023-02-16T06:33:44.122Z,98421.94
2023-02-16T06:36:10.777Z,98427.19
2023-02-16T06:38:37.287Z,98568.47
2023-02-16T06:41:04.256Z,98573.66
2023-02-16T06:43:31.017Z,98572.00
2023-02-16T06:45:57.572Z,98575.41
2023-02-16T06:48:24.094Z,98421.00
2023-02-16T06:50:50.913Z,98381.47
2023-02-16T06:53:17.488Z,98384.28
2023-02-16T06:55:44.035Z,98527.28
2023-02-16T06:58:10.642Z,98579.00
2023-02-16T07:00:37.247Z,98519.53
2023-02-16T07:03:03.902Z,98577.34
2023-02-16T07:05:30.620Z,98522.94
2023-02-16T07:07:57.317Z,98510.84
2023-02-16T07:10:23.807Z,98572.06
2023-02-16T07:12:50.371Z,98362.53
2023-02-16T07:15:16.885Z,98582.19
2023-02-16T07:17:43.353Z,98518.88
2023-02-16T07:20:12.594Z,98588.06
2023-02-16T07:22:39.126Z,98517.03
2023-02-16T07:25:06.021Z,98448.63
2023-02-16T07:27:32.525Z,98410.31
2023-02-16T07:29:59.117Z,98541.69
2023-02-16T07:32:25.776Z,98593.34
2023-02-16T07:34:52.351Z,98586.56
2023-02-16T07:37:19.583Z,98517.19
2023-02-16T07:39:46.056Z,98559.53
2023-02-16T07:42:12.635Z,98480.09
2023-02-16T07:44:39.171Z,98470.63
2023-02-16T07:47:05.696Z,98516.94
2023-02-16T07:49:32.366Z,98477.63
2023-02-16T07:51:58.948Z,98493.97
2023-02-16T07:54:25.537Z,98578.44
2023-02-16T07:56:52.049Z,98500.41
2023-02-16T07:59:18.643Z,98336.03
2023-02-16T08:01:45.197Z,98513.16
2023-02-16T08:04:11.871Z,98533.31
2023-02-16T08:06:38.442Z,98517.75
2023-02-16T08:09:04.988Z,98480.75
2023-02-16T08:11:31.733Z,98534.44
2023-02-16T08:14:01.753Z,98419.94
2023-02-16T08:16:28.735Z,98582.03
2023-02-16T08:18:56.305Z,98335.31
2023-02-16T08:21:24.063Z,98540.72
2023-02-16T08:24:01.605Z,98433.41
2023-02-16T08:26:30.022Z,98463.09
2023-02-16T08:28:57.099Z,98302.78
2023-02-16T08:31:25.442Z,98394.63
2023-02-16T08:33:52.974Z,98496.25
2023-02-16T08:36:23.619Z,98596.03
2023-02-16T08:38:50.951Z,98432.59
2023-02-16T08:41:18.792Z,98421.59
2023-02-16T08:43:45.856Z,98528.59
2023-02-16T08:46:18.601Z,98153.31
2023-02-16T08:48:45.480Z,98371.06
2023-02-16T08:51:19.389Z,98385.53
2023-02-16T08:53:46.637Z,98523.75
2023-02-16T08:56:14.238Z,98439.34
2023-02-16T08:58:40.975Z,98387.00
2023-02-16T09:01:08.263Z,98451.09
2023-02-16T09:03:38.503Z,98350.22
2023-02-16T09:06:05.903Z,98354.63
2023-02-16T09:08:37.501Z,98541.59
2023-02-16T09:11:08.950Z,98538.22
2023-02-16T09:13:36.135Z,98482.41
2023-02-16T09:16:04.624Z,98475.41
2023-02-16T09:18:33.098Z,98501.53
2023-02-16T09:21:04.510Z,98464.47
2023-02-16T09:23:31.210Z,98602.53
2023-02-16T09:25:59.107Z,98546.28
2023-02-16T09:28:25.627Z,98525.81
2023-02-16T09:30:54.383Z,98519.91
2023-02-16T09:33:21.770Z,98388.28
2023-02-16T09:35:48.426Z,98548.91
2023-02-16T09:38:16.811Z,98494.34
2023-02-16T09:40:44.090Z,98514.59
2023-02-16T09:43:33.208Z,98620.78
2023-02-16T09:45:59.845Z,98436.94
2023-02-16T09:48:37.708Z,98467.25
2023-02-16T09:51:05.420Z,98541.03
2023-02-16T09:53:39.976Z,98550.06
2023-02-16T09:56:29.312Z,98494.25
2023-02-16T09:59:16.959Z,98618.16
2023-02-16T10:02:20.482Z,98613.06
2023-02-16T10:04:58.755Z,98532.88
2023-02-16T10:07:46.811Z,98614.72
2023-02-16T10:10:15.472Z,98613.81
2023-02-16T10:12:46.146Z,98408.53
2023-02-16T10:15:22.319Z,98432.91
2023-02-16T10:17:56.005Z,98359.72
2023-02-16T10:45:53.278Z,98588.22
2023-02-16T10:48:23.847Z,98495.03
2023-02-16T10:51:03.867Z,98558.28
2023-02-16T10:53:43.890Z,98587.38
2023-02-16T10:56:31.655Z,98583.94
2023-02-16T10:58:58.208Z,98539.28
2023-02-16T11:01:34.643Z,98456.03
2023-02-16T11:04:01.352Z,98551.97
2023-02-16T11:06:29.079Z,98526.53
2023-02-16T11:08:58.054Z,98290.91
2023-02-16T11:11:28.639Z,98443.44
2023-02-16T11:14:00.374Z,98461.38
2023-02-16T11:16:26.918Z,98493.81
2023-02-16T11:18:57.342Z,98552.59
2023-02-16T11:21:58.629Z,98335.16
2023-02-16T11:24:29.344Z,98546.72
2023-02-16T11:27:06.825Z,98242.78
2023-02-16T11:29:33.640Z,98459.06
2023-02-16T11:32:01.919Z,98532.19
2023-02-16T11:34:33.655Z,98521.75
2023-02-16T11:37:06.074Z,98405.97
2023-02-16T11:55:43.248Z,98307.50
2023-02-16T11:58:25.343Z,98154.69
2023-02-16T12:01:47.192Z,98498.19
2023-02-16T12:04:42.176Z,98491.38
2023-02-16T12:07:30.603Z,98198.75
2023-02-16T12:10:00.331Z,98483.81
2023-02-16T12:12:42.502Z,98483.81
2023-02-16T12:15:25.810Z,98222.38
2023-02-16T12:18:05.233Z,98413.56
2023-02-16T12:20:50.535Z,98472.91
2023-02-16T12:23:19.342Z,98473.75
2023-02-16T12:26:33.140Z,98425.50
2023-02-16T12:29:24.136Z,98470.44
2023-02-16T12:32:12.604Z,98466.19
2023-02-16T12:35:01.619Z,98462.84
2023-02-16T12:37:39.815Z,98307.88
2023-02-16T12:48:31.561Z,98446.00
2023-02-16T12:51:52.249Z,98181.81
2023-02-16T13:00:59.775Z,98340.28
2023-02-16T13:04:03.796Z,98421.44
2023-02-16T13:06:53.199Z,98419.78
2023-02-16T13:09:55.144Z,98115.44
2023-02-16T13:12:40.818Z,98100.84
2023-02-16T13:15:22.935Z,98303.88
2023-02-16T13:17:57.115Z,98010.72
2023-02-16T13:20:26.364Z,98131.16
2023-02-16T13:23:21.042Z,98335.75
2023-02-16T13:26:18.196Z,98199.09
2023-02-16T13:29:15.517Z,98400.28
2023-02-16T13:31:45.253Z,98390.00
2023-02-16T13:34:46.628Z,98383.19
2023-02-16T13:37:38.368Z,98382.38
2023-02-16T13:40:10.826Z,98377.25
2023-02-16T13:42:59.576Z,98164.09
2023-02-16T13:45:28.360Z,98242.09
2023-02-16T13:47:55.008Z,98218.63
2023-02-16T13:50:22.240Z,98376.47
2023-02-16T13:52:48.964Z,98291.75
2023-02-16T13:55:22.875Z,98163.38
2023-02-16T13:57:50.725Z,98365.47
2023-02-16T14:00:35.552Z,98199.06
2023-02-16T14:03:03.407Z,98353.53
2023-02-16T14:05:35.179Z,98218.16
2023-02-16T14:08:21.761Z,98357.75
2023-02-16T14:10:54.321Z,98352.63
2023-02-16T14:13:26.081Z,98136.25
2023-02-16T14:15:53.298Z,98115.50
2023-02-16T14:18:41.196Z,98352.63
2023-02-16T14:21:18.697Z,98125.03
2023-02-16T14:23:46.279Z,98281.75
2023-02-16T14:26:14.926Z,98151.84
2023-02-16T14:29:03.028Z,98348.50
2023-02-16T14:31:29.673Z,98265.44
2023-02-16T14:34:18.493Z,98037.28
2023-02-16T14:37:16.437Z,98347.69
2023-02-16T14:40:04.117Z,98133.94
2023-02-16T14:42:34.133Z,98158.72
2023-02-16T14:45:09.797Z,98354.44
2023-02-16T14:47:42.452Z,98354.44
2023-02-16T14:50:24.312Z,98359.53
2023-02-16T14:53:28.416Z,98351.03
2023-02-16T14:56:14.553Z,98203.78
2023-02-16T14:59:02.136Z,98119.16
2023-02-16T15:01:28.906Z,98059.63
2023-02-16T15:03:56.328Z,98207.97
2023-02-16T15:06:25.737Z,98360.38
2023-02-16T15:08:58.329Z,98141.97
2023-02-16T15:11:35.914Z,98213.13
2023-02-16T15:14:09.648Z,98316.78
2023-02-16T15:16:38.697Z,98269.22
2023-02-16T15:19:09.513Z,98175.13
2023-02-16T15:21:36.122Z,98205.56
2023-02-16T15:42:56.859Z,98187.56
2023-02-16T15:45:34.198Z,98110.72
2023-02-16T15:48:15.340Z,98050.44
2023-02-16T15:50:42.910Z,97935.75
2023-02-16T15:53:13.780Z,97910.50
2023-02-16T15:55:45.033Z,98052.31
2023-02-16T15:58:12.512Z,98087.91
2023-02-16T16:00:40.473Z,98192.00
2023-02-16T16:03:11.802Z,97842.78
2023-02-16T16:05:42.021Z,98090.88
2023-02-16T16:08:12.752Z,98170.00
2023-02-16T16:10:42.027Z,98351.13
2023-02-16T16:13:17.347Z,98051.06
2023-02-16T16:15:45.318Z,98349.34
2023-02-16T16:18:39.147Z,98351.91
2023-02-16T16:21:13.525Z,98369.75
2023-02-16T16:23:40.142Z,98119.03
2023-02-16T16:26:17.552Z,98172.38
2023-02-16T16:28:44.098Z,98162.06
2023-02-16T16:31:23.485Z,98133.78
2023-02-16T16:34:07.480Z,98292.03
2023-02-16T16:36:54.741Z,98301.81
2023-02-16T16:39:42.864Z,98281.25
2023-02-16T16:42:18.158Z,98147.56
2023-02-16T16:45:01.912Z,98164.72
2023-02-16T16:47:39.781Z,98149.28
2023-02-16T16:50:15.254Z,98359.41
2023-02-16T16:52:43.658Z,98203.56
2023-02-16T16:55:19.285Z,98363.66
2023-02-16T16:57:46.515Z,98185.28
2023-02-16T17:00:13.718Z,98151.19
2023-02-16T17:02:40.466Z,98360.28
2023-02-16T17:05:07.582Z,98035.31
2023-02-16T17:07:34.136Z,98280.56
2023-02-16T17:10:00.897Z,98219.22
2023-02-16T17:12:31.149Z,98180.66
2023-02-16T17:14:57.699Z,98153.88
2023-02-16T17:17:24.219Z,98282.19
2023-02-16T17:19:50.803Z,98305.22
2023-02-16T17:22:20.519Z,98127.59
2023-02-16T17:24:47.167Z,98135.88
2023-02-16T17:27:13.771Z,98129.13
2023-02-16T17:29:42.787Z,98301.13
2023-02-16T17:32:09.414Z,98213.13
2023-02-16T17:34:36.060Z,98063.16
2023-02-16T17:37:03.968Z,98125.03
2023-02-16T17:39:30.819Z,98206.25
2023-02-16T17:41:57.824Z,98075.38
2023-02-16T17:44:24.375Z,98129.81
2023-02-16T17:46:50.925Z,98170.19
2023-02-16T17:49:17.448Z,98163.84
2023-02-16T17:51:43.990Z,98282.19
2023-02-16T17:54:10.473Z,98194.91
2023-02-16T17:56:39.533Z,98288.16
2023-02-16T17:59:06.323Z,98252.09
2023-02-16T18:01:35.848Z,98212.16
2023-02-16T18:04:04.103Z,98288.22
2023-02-16T18:06:30.641Z,98116.47
2023-02-16T18:08:57.165Z,98231.19
2023-02-16T18:11:23.734Z,98086.91
2023-02-16T18:13:50.512Z,98206.84
2023-02-16T18:16:19.018Z,98180.31
2023-02-16T18:18:45.612Z,98367.06
2023-02-16T18:21:12.168Z,98284.00
2023-02-16T18:23:38.821Z,98208.59
2023-02-16T18:26:05.698Z,98201.81
2023-02-16T18:28:33.269Z,98276.38
2023-02-16T18:31:00.159Z,98162.91
2023-02-16T18:33:26.805Z,98254.78
2023-02-16T18:35:55.530Z,98280.50
2023-02-16T18:38:22.364Z,98195.47
2023-02-16T18:40:50.945Z,98146.38
2023-02-16T18:43:17.818Z,98085.28
2023-02-16T18:45:44.485Z,98190.97
2023-02-16T18:48:11.366Z,98208.94
2023-02-16T18:50:37.916Z,98287.44
2023-02-16T18:53:04.568Z,98144.47
2023-02-16T18:55:33.911Z,98303.44
2023-02-16T18:58:03.216Z,98241.09
2023-02-16T19:00:29.874Z,98088.09
2023-02-16T19:02:57.051Z,98141.03
2023-02-16T19:05:23.829Z,98166.47
2023-02-16T19:07:50.592Z,98224.09
2023-02-16T19:10:17.290Z,98280.34
2023-02-16T19:12:43.986Z,97909.06
2023-02-16T19:15:11.046Z,98300.03
2023-02-16T19:17:38.736Z,98070.72
2023-02-16T19:20:09.974Z,98219.00
2023-02-16T19:22:40.144Z,98171.56
2023-02-16T19:25:09.847Z,98295.94
2023-02-16T19:27:42.352Z,98132.22
2023-02-16T19:30:09.359Z,98265.88
2023-02-16T19:32:36.725Z,98139.47
2023-02-16T19:35:03.798Z,98175.13
2023-02-16T19:37:30.666Z,98106.38
2023-02-16T19:39:57.276Z,98127.44
2023-02-16T19:42:25.432Z,97698.47
2023-02-16T19:44:52.135Z,97295.47
2023-02-16T19:47:21.199Z,97745.41
2023-02-16T19:49:47.864Z,97299.25
2023-02-16T19:52:14.546Z,97571.28
2023-02-16T19:54:41.483Z,97365.91
2023-02-16T19:57:10.055Z,97608.13
2023-02-16T19:59:36.756Z,98213.59
2023-02-16T20:02:03.683Z,97233.38
2023-02-16T20:04:33.290Z,98212.16
2023-02-16T20:06:59.869Z,97837.56
2023-02-16T20:09:26.632Z,97993.94
2023-02-16T20:11:53.382Z,97697.31
2023-02-16T20:14:20.084Z,98199.28
2023-02-16T20:16:48.656Z,97946.13
2023-02-16T20:19:15.359Z,98223.03
2023-02-16T20:21:44.197Z,98354.22
2023-02-16T20:24:10.944Z,98321.06
2023-02-16T20:26:43.001Z,98267.09
2023-02-16T20:29:10.954Z,98148.63
2023-02-16T20:31:44.748Z,98316.94
2023-02-16T20:34:11.523Z,98067.31
2023-02-16T20:36:40.213Z,98292.91
2023-02-16T20:39:09.851Z,97878.50
2023-02-16T20:41:36.638Z,97445.00
2023-02-16T20:44:03.976Z,98057.81
2023-02-16T20:46:30.751Z,98118.63
2023-02-16T20:49:00.286Z,98222.88
2023-02-16T20:51:32.867Z,98071.25
2023-02-16T20:54:02.955Z,98234.38
2023-02-16T20:56:29.877Z,98251.22
2023-02-16T20:58:56.903Z,98162.56
2023-02-16T21:01:37.199Z,98199.22
2023-02-16T21:04:05.510Z,98164.16
2023-02-16T21:06:32.235Z,98214.38
2023-02-16T21:08:58.904Z,98034.63
2023-02-16T21:11:25.683Z,98177.34
2023-02-16T21:13:52.409Z,98180.91
2023-02-16T21:16:24.850Z,98225.06
2023-02-16T21:18:51.489Z,97656.88
2023-02-16T21:21:18.054Z,98301.72
2023-02-16T21:23:50.013Z,97991.81
2023-02-16T21:26:16.968Z,98188.78
2023-02-16T21:28:43.660Z,98066.88
2023-02-16T21:31:13.017Z,97966.06
2023-02-16T21:33:39.703Z,98196.22
2023-02-16T21:36:13.950Z,98116.69
2023-02-16T21:38:42.131Z,97851.28
2023-02-16T21:41:29.252Z,97991.34
2023-02-16T21:44:00.727Z,98359.53
2023-02-16T21:46:32.421Z,98135.91
2023-02-16T21:49:01.184Z,98106.88
2023-02-16T21:51:32.753Z,98008.16
2023-02-16T21:53:59.438Z,98263.75
2023-02-16T21:56:33.713Z,98193.59
2023-02-16T21:59:00.375Z,98094.47
2023-02-16T22:01:30.042Z,98089.28
2023-02-16T22:03:59.343Z,98135.59
2023-02-16T22:06:37.710Z,98047.25
2023-02-16T22:09:06.276Z,98186.59
2023-02-16T22:11:32.901Z,97848.19
2023-02-16T22:14:00.141Z,98000.22
2023-02-16T22:16:27.495Z,97817.16
2023-02-16T22:19:01.411Z,97997.91
2023-02-16T22:21:28.478Z,98156.03
2023-02-16T22:23:55.373Z,98060.19
2023-02-16T22:26:26.502Z,97939.78
2023-02-16T22:28:53.287Z,98279.66
2023-02-16T22:31:20.662Z,98014.38
2023-02-16T22:33:47.403Z,98011.00
2023-02-16T22:36:15.003Z,98156.81
2023-02-16T22:38:49.916Z,97676.31
2023-02-16T22:41:16.623Z,97382.06
2023-02-16T22:43:43.537Z,97937.34
2023-02-16T22:46:14.370Z,97709.13
2023-02-16T22:48:41.143Z,98108.25
2023-02-16T22:51:11.484Z,98333.19
2023-02-16T22:53:40.394Z,97818.19
2023-02-16T22:56:08.316Z,98116.69
2023-02-16T22:58:35.224Z,98093.94
2023-02-16T23:01:01.950Z,97924.00
2023-02-16T23:03:28.664Z,97856.53
2023-02-16T23:05:57.577Z,98255.53
2023-02-16T23:08:24.335Z,97918.44
2023-02-16T23:11:00.031Z,97461.47
2023-02-16T23:13:31.431Z,98161.06
2023-02-16T23:16:02.532Z,97842.53
2023-02-16T23:18:32.332Z,97673.16
2023-02-16T23:21:09.127Z,97691.09
2023-02-16T23:23:36.441Z,97972.81
2023-02-16T23:26:05.018Z,98009.38
2023-02-16T23:28:31.762Z,97797.25
2023-02-16T23:30:58.619Z,97913.56
2023-02-16T23:33:25.318Z,98200.25
2023-02-16T23:35:57.527Z,97647.53
2023-02-16T23:38:24.236Z,97820.66
2023-02-16T23:41:04.291Z,97773.09
2023-02-16T23:43:31.059Z,97944.13
2023-02-16T23:45:57.894Z,98186.28
2023-02-16T23:48:24.577Z,97472.81
2023-02-16T23:50:51.350Z,97351.16
2023-02-16T23:53:21.404Z,98138.66
2023-02-16T23:56:00.622Z,97951.13
2023-02-16T23:58:29.041Z,98117.38
